Midway, Washington
Current Conditions -  °F | °C
As of 2:53 AM on Monday 20 Oct 2014 (Local Time) from KSEA Reporting Station
Light Rain Light Rain  
Wind Chill: 59°   Ceiling: 7500
Heat Index: 59°   Visibility: 8mi
Dew Point: 56°   Wind: 9mph
Humidity: 90%   Direction: 130°SE
Pressure: 29.73"   Gusts: NA
Location:  47.3871°N, 122.202°W
Report Text: KSEA 200953Z 13008KT 8SM -RA OVC075 15/13 A2973 RMK AO2 SLP070 P0006 T01500133
Loading
Personal Weather Stations






























Interactive Weather Map
Tropical Storm Tracking
New forecast layout! Learn more

10-Day Weather Forecast

Advertisements
Track Severe Weather on mobile